Time;durP1;ratioP1;P1;durP2;ratioP2;P2;SDS_P1;SDS_P2;PMS_P1;PMS_P2;Temp;Humidity;BMP_temperature;BMP_pressure;BME280_temperature;BME280_humidity;BME280_pressure;Samples;Min_cycle;Max_cycle;Signal;HPM_P1;HPM_P2
2021/12/10 00:00:47;;;;;;;26.17;6.75;;;;;;;23.41;50.91;98100.28;7310651;19;129785;-33
2021/12/10 00:03:35;;;;;;;19.10;5.90;;;;;;;23.51;50.75;98100.78;7315879;19;129518;-32
2021/12/10 00:06:05;;;;;;;13.27;5.28;;;;;;;23.69;49.64;98100.34;7315766;19;130048;-33
2021/12/10 00:08:35;;;;;;;13.85;5.13;;;;;;;23.80;49.67;98098.00;7316551;19;129510;-39
2021/12/10 00:11:04;;;;;;;15.45;4.53;;;;;;;23.89;49.36;98099.50;7316477;19;130463;-32
2021/12/10 00:13:29;;;;;;;14.93;5.07;;;;;;;24.01;48.80;98090.16;7313535;19;129229;-34
2021/12/10 00:15:56;;;;;;;18.58;6.00;;;;;;;24.07;49.20;98085.94;7314218;19;130652;-36
2021/12/10 00:18:26;;;;;;;11.40;4.65;;;;;;;24.14;48.68;98084.97;7316130;19;129394;-39
2021/12/10 00:20:57;;;;;;;20.50;5.57;;;;;;;24.12;48.46;98089.59;7315993;19;129508;-37
2021/12/10 00:23:22;;;;;;;13.80;4.82;;;;;;;24.05;48.60;98090.53;7315375;19;131332;-34
2021/12/10 00:25:51;;;;;;;25.95;6.22;;;;;;;23.96;48.79;98079.38;7314669;19;150112;-36
2021/12/10 00:28:24;;;;;;;14.68;4.82;;;;;;;23.91;48.86;98073.06;7315548;19;129656;-34
2021/12/10 00:31:19;;;;;;;23.85;6.20;;;;;;;23.77;49.65;98079.19;7315095;19;132189;-32
2021/12/10 00:33:52;;;;;;;25.25;6.72;;;;;;;23.60;50.14;98078.66;7312526;19;130544;-37
2021/12/10 00:36:18;;;;;;;17.20;5.10;;;;;;;23.60;49.73;98078.66;7315384;19;129058;-36
2021/12/10 00:38:43;;;;;;;16.20;4.93;;;;;;;23.48;50.42;98069.69;7315168;19;129177;-37
2021/12/10 00:41:09;;;;;;;17.35;4.88;;;;;;;23.40;51.04;98072.44;7314875;19;128995;-35
2021/12/10 00:43:36;;;;;;;22.40;5.53;;;;;;;23.35;50.49;98079.25;7313728;19;130315;-38
2021/12/10 00:46:02;;;;;;;14.48;4.68;;;;;;;23.30;51.58;98081.63;7315152;19;128825;-38
2021/12/10 00:48:28;;;;;;;13.07;4.53;;;;;;;23.23;51.06;98081.53;7314822;19;130133;-40
2021/12/10 00:50:56;;;;;;;14.10;4.10;;;;;;;23.20;51.39;98079.28;7315794;19;129958;-34
2021/12/10 00:53:23;;;;;;;13.48;4.78;;;;;;;23.16;51.96;98064.91;7312685;19;129612;-33
2021/12/10 00:55:49;;;;;;;20.48;5.18;;;;;;;23.13;51.28;98071.34;7315403;19;129638;-37
2021/12/10 00:58:16;;;;;;;15.03;4.57;;;;;;;23.09;51.68;98061.41;7316216;19;131020;-37
2021/12/10 01:00:51;;;;;;;18.80;4.75;;;;;;;23.07;52.35;98066.03;7314813;19;131938;-36
2021/12/10 01:03:22;;;;;;;14.40;4.18;;;;;;;22.97;52.17;98055.03;7314303;19;129368;-38
2021/12/10 01:05:55;;;;;;;20.33;5.35;;;;;;;23.01;52.15;98054.47;7314229;19;130170;-37
2021/12/10 01:08:21;;;;;;;14.40;4.55;;;;;;;22.98;51.75;98057.47;7314809;19;129557;-36
2021/12/10 01:10:57;;;;;;;14.27;4.70;;;;;;;23.01;52.22;98048.41;7313599;19;131904;-40
2021/12/10 01:13:28;;;;;;;15.30;4.68;;;;;;;23.06;51.72;98043.44;7310048;19;130519;-32
2021/12/10 01:23:41;;;;;;;14.40;4.80;;;;;;;23.13;51.43;98044.31;7313983;19;128958;-33
2021/12/10 01:24:54;;;;;;;17.73;4.78;;;;;;;23.40;50.85;98020.00;7312204;19;129153;-32
2021/12/10 01:27:33;;;;;;;16.00;4.63;;;;;;;23.53;50.25;98014.84;7314461;19;129661;-34
2021/12/10 01:30:20;;;;;;;13.35;4.35;;;;;;;23.63;49.96;98010.09;7314020;19;129346;-33
2021/12/10 01:32:50;;;;;;;19.70;5.05;;;;;;;23.77;49.62;98006.53;7311890;19;129220;-41
2021/12/10 01:35:21;;;;;;;11.63;4.30;;;;;;;23.86;49.65;98000.16;7313398;19;130897;-36
2021/12/10 01:37:48;;;;;;;18.25;4.90;;;;;;;24.00;49.59;97993.16;7314548;19;128957;-33
2021/12/10 01:40:13;;;;;;;14.05;4.38;;;;;;;24.08;49.05;97993.84;7314593;19;129088;-36
2021/12/10 01:42:46;;;;;;;21.58;5.15;;;;;;;24.10;49.12;97991.00;7313813;19;129910;-35
2021/12/10 01:45:28;;;;;;;11.98;4.20;;;;;;;24.13;49.23;97988.81;7313511;19;130793;-33
2021/12/10 01:48:00;;;;;;;16.90;4.75;;;;;;;24.07;49.43;97976.47;7313519;19;129400;-37
2021/12/10 01:50:27;;;;;;;14.75;4.30;;;;;;;24.01;48.69;97972.00;7312860;19;129693;-32
2021/12/10 01:53:06;;;;;;;21.67;5.40;;;;;;;23.93;49.36;97968.69;7311181;19;129314;-36
2021/12/10 01:55:36;;;;;;;16.42;4.68;;;;;;;23.80;49.78;97966.78;7313169;19;129325;-36
2021/12/10 01:58:03;;;;;;;14.52;4.60;;;;;;;23.69;50.38;97966.50;7313161;19;129283;-37
2021/12/10 02:00:31;;;;;;;15.40;4.95;;;;;;;23.59;49.96;97961.63;7311836;19;129058;-36
2021/12/10 02:02:57;;;;;;;18.10;5.10;;;;;;;23.53;50.69;97957.16;7313651;19;130491;-37
2021/12/10 02:05:22;;;;;;;16.97;4.60;;;;;;;23.43;50.33;97955.84;7312975;19;129635;-36
2021/12/10 02:07:48;;;;;;;18.10;4.60;;;;;;;23.37;50.89;97954.78;7314302;19;129720;-34
2021/12/10 02:10:18;;;;;;;15.15;4.18;;;;;;;23.33;51.15;97950.13;7313239;19;129625;-31
2021/12/10 02:12:45;;;;;;;12.27;3.88;;;;;;;23.28;51.05;97950.69;7311336;19;129476;-33
2021/12/10 02:15:12;;;;;;;12.93;4.43;;;;;;;23.21;51.75;97940.13;7308935;19;130889;-33
2021/12/10 02:17:41;;;;;;;8.63;3.25;;;;;;;23.14;52.36;97930.56;7312706;19;129399;-32
2021/12/10 02:20:38;;;;;;;17.30;4.38;;;;;;;23.09;51.51;97938.19;7312505;19;129666;-39
2021/12/10 02:23:06;;;;;;;14.88;4.63;;;;;;;23.07;52.30;97929.72;7307189;19;129468;-32
2021/12/10 02:25:38;;;;;;;18.95;5.00;;;;;;;23.00;52.34;97915.75;7310851;19;129178;-36
2021/12/10 02:28:07;;;;;;;7.07;3.40;;;;;;;23.03;52.24;97913.56;7313576;19;128841;-36
2021/12/10 02:30:33;;;;;;;15.02;4.25;;;;;;;23.06;52.13;97917.59;7313009;19;129318;-33
2021/12/10 02:32:58;;;;;;;24.95;5.97;;;;;;;23.13;51.79;97905.38;7310939;19;129759;-32
2021/12/10 02:35:25;;;;;;;13.55;4.38;;;;;;;23.17;51.54;97906.63;7311928;19;129311;-36
2021/12/10 02:37:50;;;;;;;17.80;4.57;;;;;;;23.16;51.74;97899.75;7312119;19;128960;-30
2021/12/10 02:40:19;;;;;;;11.35;3.72;;;;;;;23.27;51.30;97894.00;7310411;19;154765;-38
2021/12/10 02:42:48;;;;;;;19.30;4.85;;;;;;;23.37;51.20;97888.44;7312546;19;131981;-36
2021/12/10 02:45:16;;;;;;;11.55;3.55;;;;;;;23.47;50.87;97881.81;7312762;19;130494;-32
2021/12/10 02:47:42;;;;;;;12.70;3.90;;;;;;;23.55;50.78;97873.78;7312219;19;128870;-31
2021/12/10 02:50:08;;;;;;;;;;;;;;;23.63;50.17;97865.78;7313443;19;128998;-38
2021/12/10 02:52:34;;;;;;;13.82;4.10;;;;;;;23.74;50.13;97865.22;7311340;19;130777;-38
2021/12/10 02:54:59;;;;;;;14.32;4.10;;;;;;;23.83;49.46;97871.91;7308046;19;140192;-32
2021/12/10 02:57:26;;;;;;;19.70;5.13;;;;;;;23.95;49.52;97861.66;7312438;19;129895;-33
2021/12/10 02:59:52;;;;;;;18.58;5.32;;;;;;;24.00;49.49;97862.72;7312828;19;129525;-34
2021/12/10 03:02:22;;;;;;;9.80;3.63;;;;;;;24.05;48.80;97852.44;7312003;19;129394;-35
2021/12/10 03:04:47;;;;;;;15.70;4.10;;;;;;;24.07;49.13;97850.44;7307882;19;129315;-33
2021/12/10 03:07:15;;;;;;;15.02;4.20;;;;;;;24.05;49.14;97852.44;7312386;19;129117;-32
2021/12/10 03:09:43;;;;;;;17.08;4.50;;;;;;;23.97;49.29;97847.34;7311587;19;128952;-35
2021/12/10 03:12:10;;;;;;;13.15;3.70;;;;;;;23.84;49.52;97834.19;7310630;19;129076;-35
2021/12/10 03:14:39;;;;;;;12.73;3.40;;;;;;;23.81;49.99;97850.31;7307025;19;132172;-31
2021/12/10 03:17:08;;;;;;;6.20;2.92;;;;;;;23.69;50.00;97841.38;7312377;19;129070;-34
2021/12/10 03:19:34;;;;;;;13.05;4.13;;;;;;;23.63;50.36;97841.34;7311218;19;129533;-35
2021/12/10 03:22:00;;;;;;;12.63;3.93;;;;;;;23.54;50.28;97838.09;7311290;19;130293;-33
2021/12/10 03:24:27;;;;;;;16.10;4.18;;;;;;;23.45;50.89;97847.13;7307798;19;129609;-32
2021/12/10 03:26:57;;;;;;;17.98;4.57;;;;;;;23.30;51.57;97825.47;7311095;19;129146;-37
2021/12/10 03:29:25;;;;;;;13.73;3.72;;;;;;;23.29;51.29;97841.38;7311446;19;129239;-36
2021/12/10 03:31:52;;;;;;;16.98;4.13;;;;;;;23.25;51.20;97843.56;7310691;19;129784;-31
2021/12/10 03:34:19;;;;;;;14.27;4.00;;;;;;;23.24;51.64;97847.16;7308097;19;129475;-32
2021/12/10 03:36:46;;;;;;;13.82;3.70;;;;;;;23.17;51.61;97852.34;7308847;19;130537;-34
2021/12/10 03:39:17;;;;;;;12.73;3.70;;;;;;;23.12;52.56;97856.56;7311671;19;129082;-36
2021/12/10 03:41:43;;;;;;;14.60;3.90;;;;;;;23.13;51.56;97858.19;7310408;19;129147;-34
2021/12/10 03:44:10;;;;;;;8.82;3.40;;;;;;;23.10;51.45;97861.19;7307403;19;130232;-36
2021/12/10 03:46:36;;;;;;;15.10;4.03;;;;;;;23.08;51.93;97850.09;7310340;19;129501;-38
2021/12/10 03:49:03;;;;;;;13.80;3.92;;;;;;;23.11;51.56;97853.13;7309601;19;129294;-29
2021/12/10 03:51:30;;;;;;;13.15;3.75;;;;;;;23.18;51.64;97855.81;7310132;19;129529;-32
2021/12/10 03:53:55;;;;;;;15.37;4.20;;;;;;;23.32;51.52;97841.00;7306153;19;129780;-32
2021/12/10 03:56:23;;;;;;;10.57;3.72;;;;;;;23.67;50.50;97843.38;7310470;19;128838;-35
2021/12/10 03:58:50;;;;;;;19.45;4.68;;;;;;;24.11;49.26;97841.16;7309822;19;129010;-32
2021/12/10 04:01:19;;;;;;;15.68;4.45;;;;;;;24.71;47.60;97842.88;7309917;19;129105;-32
2021/12/10 04:03:48;;;;;;;27.42;6.60;;;;;;;25.14;46.86;97838.03;7306924;19;129897;-35
2021/12/10 04:06:13;;;;;;;14.02;3.80;;;;;;;25.69;45.06;97843.56;7310511;19;129470;-32
2021/12/10 04:08:39;;;;;;;15.25;3.83;;;;;;;26.17;44.35;97830.81;7310234;19;129330;-37
2021/12/10 04:11:06;;;;;;;3.55;2.20;;;;;;;26.67;43.00;97831.72;7309553;19;129755;-36
2021/12/10 04:13:33;;;;;;;15.65;3.88;;;;;;;27.10;42.58;97840.50;7307586;19;129841;-32
2021/12/10 04:15:58;;;;;;;15.90;4.30;;;;;;;27.38;41.09;97834.75;7308827;19;129104;-37
2021/12/10 04:18:23;;;;;;;15.23;4.13;;;;;;;27.62;41.02;97826.75;7309496;19;128919;-35
2021/12/10 04:20:49;;;;;;;19.57;4.80;;;;;;;27.82;40.75;97821.22;7307987;19;158576;-36
2021/12/10 04:23:18;;;;;;;13.70;3.60;;;;;;;27.92;40.29;97826.81;7308374;19;129228;-32
2021/12/10 04:25:44;;;;;;;19.25;4.15;;;;;;;27.93;40.32;97831.09;7309093;19;129141;-32
2021/12/10 04:28:13;;;;;;;13.07;3.27;;;;;;;27.90;40.71;97834.97;7309391;19;129071;-35
2021/12/10 04:30:41;;;;;;;21.75;4.28;;;;;;;27.74;40.31;97830.28;7309259;19;129799;-30
2021/12/10 04:33:08;;;;;;;14.38;3.55;;;;;;;27.59;41.24;97831.66;7307929;19;129374;-34
2021/12/10 04:35:34;;;;;;;14.68;3.88;;;;;;;27.31;41.61;97831.38;7308692;19;128878;-35
2021/12/10 04:38:00;;;;;;;14.70;3.63;;;;;;;27.03;42.64;97836.28;7307923;19;129318;-32
2021/12/10 04:40:25;;;;;;;13.57;3.43;;;;;;;26.74;43.15;97830.63;7308562;19;132851;-33
2021/12/10 04:42:51;;;;;;;28.30;5.23;;;;;;;26.52;43.36;97832.00;7306388;19;158786;-31
2021/12/10 04:45:18;;;;;;;15.23;3.63;;;;;;;26.24;43.62;97831.59;7308179;19;129217;-32
2021/12/10 04:47:44;;;;;;;20.67;4.60;;;;;;;26.00;44.29;97836.78;7310985;19;129148;-39
2021/12/10 04:50:11;;;;;;;12.57;3.63;;;;;;;25.75;44.77;97841.91;7314776;19;129186;-33
2021/12/10 04:52:37;;;;;;;18.67;4.13;;;;;;;25.53;45.83;97828.25;7315193;19;130179;-36
2021/12/10 04:55:06;;;;;;;17.83;4.30;;;;;;;25.35;46.07;97824.66;7311642;19;129418;-33
2021/12/10 04:57:31;;;;;;;9.73;3.22;;;;;;;25.15;46.81;97819.41;7317150;19;130655;-37
2021/12/10 04:59:57;;;;;;;17.07;3.83;;;;;;;24.98;47.36;97820.03;7311781;19;157617;-35
2021/12/10 05:02:23;;;;;;;13.18;4.07;;;;;;;24.73;46.60;97817.22;7316204;19;130554;-37
2021/12/10 05:04:49;;;;;;;18.13;4.50;;;;;;;24.61;45.66;97823.25;7314835;19;130360;-36
2021/12/10 05:07:16;;;;;;;16.00;4.03;;;;;;;24.44;46.49;97809.72;7317453;19;129485;-37
2021/12/10 05:09:42;;;;;;;26.98;6.22;;;;;;;24.32;47.36;97806.88;7314692;19;129157;-36
2021/12/10 05:12:08;;;;;;;14.43;4.20;;;;;;;24.19;47.51;97809.47;7315918;19;129662;-35
2021/12/10 05:14:34;;;;;;;13.50;3.85;;;;;;;24.09;48.12;97803.81;7313990;19;129344;-35
2021/12/10 05:17:05;;;;;;;16.57;4.07;;;;;;;23.97;47.25;97792.22;7317312;19;129965;-38
2021/12/10 05:19:30;;;;;;;16.90;4.65;;;;;;;23.95;48.11;97807.34;7316114;19;130182;-38
2021/12/10 05:21:59;;;;;;;5.30;2.80;;;;;;;23.86;47.84;97800.69;7317269;19;130399;-39
2021/12/10 05:24:26;;;;;;;20.58;4.68;;;;;;;23.79;48.70;97799.84;7314782;19;129010;-36
2021/12/10 05:26:52;;;;;;;23.38;5.55;;;;;;;23.72;48.21;97799.00;7315237;19;129043;-37
2021/12/10 05:29:18;;;;;;;15.80;4.30;;;;;;;23.69;48.34;97786.28;7315956;19;130232;-38
2021/12/10 05:31:45;;;;;;;19.20;4.80;;;;;;;23.62;48.33;97788.06;7315306;19;130933;-37
2021/12/10 05:34:11;;;;;;;;;;;;;;;23.58;49.58;97786.84;7314372;19;129422;-37
2021/12/10 05:36:36;;;;;;;17.42;4.32;;;;;;;23.52;49.23;97779.75;7316381;19;129867;-37
2021/12/10 05:39:04;;;;;;;14.70;4.57;;;;;;;23.47;48.84;97778.75;7312871;19;147522;-36
2021/12/10 05:41:29;;;;;;;16.63;4.55;;;;;;;23.40;48.51;97768.22;7313464;19;129248;-38
2021/12/10 05:43:54;;;;;;;18.98;4.57;;;;;;;23.43;49.67;97775.69;7313170;19;129214;-38
2021/12/10 05:46:20;;;;;;;13.90;4.38;;;;;;;23.36;48.92;97782.72;7314385;19;129614;-37
2021/12/10 05:48:45;;;;;;;19.92;5.15;;;;;;;23.32;48.64;97776.22;7313346;19;131996;-36
2021/12/10 05:51:11;;;;;;;16.55;4.75;;;;;;;23.34;48.96;97779.47;7315185;19;130049;-38
2021/12/10 05:53:37;;;;;;;19.58;5.03;;;;;;;23.45;48.58;97776.31;7312926;19;129093;-37
2021/12/10 05:56:03;;;;;;;15.53;5.07;;;;;;;23.49;48.38;97777.53;7314785;19;129491;-36
2021/12/10 05:58:28;;;;;;;10.95;4.53;;;;;;;23.63;47.30;97773.16;7312141;19;129932;-38
2021/12/10 06:01:03;;;;;;;16.83;4.30;;;;;;;23.78;47.28;97772.00;7311792;19;158507;-35
2021/12/10 06:03:29;;;;;;;18.75;4.90;;;;;;;24.06;46.90;97764.00;7313165;19;128942;-36
2021/12/10 06:05:54;;;;;;;23.00;5.22;;;;;;;24.27;45.61;97775.16;7314528;19;129109;-35
2021/12/10 06:08:21;;;;;;;11.10;4.13;;;;;;;24.41;45.97;97771.50;7313653;19;130158;-37
2021/12/10 06:10:48;;;;;;;21.15;5.00;;;;;;;24.62;45.12;97769.69;7316631;19;130682;-37
2021/12/10 06:13:14;;;;;;;11.98;3.88;;;;;;;24.79;44.65;97765.66;7313228;19;129407;-39
2021/12/10 06:15:39;;;;;;;25.20;5.67;;;;;;;24.86;44.73;97750.72;7313972;19;154365;-37
2021/12/10 06:18:06;;;;;;;13.13;3.80;;;;;;;25.05;44.16;97757.72;7313623;19;152115;-37
2021/12/10 06:20:36;;;;;;;17.60;4.43;;;;;;;25.20;43.65;97759.13;7312400;19;133341;-38
2021/12/10 06:23:03;;;;;;;27.50;6.32;;;;;;;25.26;44.00;97757.47;7314718;19;129209;-36
2021/12/10 06:25:30;;;;;;;16.20;4.20;;;;;;;25.40;43.06;97749.34;7314435;19;130122;-37
2021/12/10 06:27:55;;;;;;;14.15;4.20;;;;;;;25.44;43.06;97736.56;7311710;19;130451;-36
2021/12/10 06:30:25;;;;;;;12.82;3.85;;;;;;;25.52;43.39;97746.84;7313695;19;129491;-35
2021/12/10 06:32:54;;;;;;;26.83;5.20;;;;;;;25.56;43.34;97734.91;7312457;19;129107;-37
2021/12/10 06:35:21;;;;;;;34.30;6.47;;;;;;;25.62;43.09;97734.06;7311913;19;129714;-35
2021/12/10 06:37:47;;;;;;;41.22;9.85;;;;;;;25.54;42.50;97726.41;7271872;19;129867;-40
2021/12/10 06:40:16;;;;;;;15.05;4.15;;;;;;;25.66;42.77;97737.91;7308525;19;130919;-38
2021/12/10 06:42:42;;;;;;;16.20;4.50;;;;;;;25.71;42.83;97735.44;7311065;19;129170;-39
2021/12/10 06:45:12;;;;;;;15.97;4.27;;;;;;;25.70;43.26;97734.63;7308542;19;129122;-36
2021/12/10 06:47:37;;;;;;;22.30;5.10;;;;;;;25.73;43.54;97734.19;7310905;19;129128;-34
2021/12/10 06:50:05;;;;;;;20.27;4.95;;;;;;;25.71;43.61;97730.19;7311465;19;129561;-34
2021/12/10 06:52:31;;;;;;;15.40;4.07;;;;;;;25.67;43.45;97723.72;7311829;19;129447;-35
2021/12/10 06:54:56;;;;;;;18.25;3.92;;;;;;;25.60;44.24;97726.38;7306365;19;152787;-31
2021/12/10 06:57:21;;;;;;;12.40;3.70;;;;;;;25.60;43.98;97717.69;7309321;19;146132;-34
2021/12/10 06:59:47;;;;;;;32.67;5.63;;;;;;;25.50;43.86;97717.34;7308140;19;129253;-35
2021/12/10 07:02:13;;;;;;;15.53;4.00;;;;;;;25.36;44.12;97713.13;7306525;19;155195;-34
2021/12/10 07:04:41;;;;;;;19.03;4.53;;;;;;;25.34;44.32;97729.09;7306012;19;129599;-35
2021/12/10 07:07:08;;;;;;;16.92;4.30;;;;;;;25.12;44.76;97713.81;7310286;19;131137;-36
2021/12/10 07:09:33;;;;;;;13.90;3.63;;;;;;;25.10;45.43;97721.09;7309302;19;130080;-41
2021/12/10 07:11:59;;;;;;;23.17;4.93;;;;;;;24.99;45.99;97725.16;7306858;19;129320;-38
2021/12/10 07:14:24;;;;;;;14.13;3.88;;;;;;;24.80;46.29;97712.09;7306906;19;129576;-39
2021/12/10 07:16:50;;;;;;;23.33;4.82;;;;;;;24.79;46.23;97726.25;7308494;19;158163;-38
2021/12/10 07:19:15;;;;;;;16.20;4.00;;;;;;;24.61;46.19;97710.28;7309357;19;130402;-40
2021/12/10 07:21:44;;;;;;;17.83;4.32;;;;;;;24.56;46.71;97718.75;7307954;19;128926;-39
2021/12/10 07:24:14;;;;;;;10.38;3.22;;;;;;;24.48;47.20;97722.41;7308860;19;131409;-37
2021/12/10 07:26:40;;;;;;;19.30;4.30;;;;;;;24.36;47.42;97712.72;7309964;19;131629;-39
2021/12/10 07:29:06;;;;;;;15.07;4.07;;;;;;;24.13;42.57;97694.72;7309123;19;129301;-39
2021/12/10 07:31:33;;;;;;;17.65;4.35;;;;;;;24.15;44.11;97711.09;7306382;19;129820;-39
2021/12/10 07:33:59;;;;;;;17.67;4.70;;;;;;;24.10;45.36;97708.25;7307701;19;129523;-34
2021/12/10 07:36:25;;;;;;;15.18;4.35;;;;;;;24.01;46.53;97704.22;7309876;19;129433;-36
2021/12/10 07:38:52;;;;;;;24.98;5.15;;;;;;;23.94;46.74;97686.81;7309203;19;129627;-37
2021/12/10 07:41:17;;;;;;;13.80;3.58;;;;;;;23.90;46.50;97696.13;7308030;19;129276;-35
2021/12/10 07:43:43;;;;;;;26.70;5.83;;;;;;;23.84;47.46;97692.47;7305042;19;129715;-37
2021/12/10 07:46:12;;;;;;;16.08;3.97;;;;;;;23.80;47.47;97685.97;7308138;19;130758;-32
2021/12/10 07:48:38;;;;;;;20.85;4.65;;;;;;;23.80;47.51;97688.59;7305429;19;129602;-37
2021/12/10 07:51:09;;;;;;;12.68;3.42;;;;;;;23.72;48.09;97683.56;7302555;19;130810;-34
2021/12/10 07:53:36;;;;;;;16.67;3.97;;;;;;;23.74;48.56;97691.22;7307330;19;129081;-36
2021/12/10 07:56:04;;;;;;;14.73;3.63;;;;;;;23.73;48.67;97692.25;7309063;19;131238;-34
2021/12/10 07:58:30;;;;;;;16.88;3.80;;;;;;;23.63;48.73;97687.38;7308572;19;132256;-36
2021/12/10 08:00:56;;;;;;;18.33;4.10;;;;;;;23.61;48.77;97685.97;7308423;19;129791;-35
2021/12/10 08:03:22;;;;;;;15.57;3.63;;;;;;;23.59;49.08;97688.78;7309896;19;130605;-36
2021/12/10 08:05:49;;;;;;;15.05;3.55;;;;;;;23.56;48.89;97686.56;7307679;19;130943;-38
2021/12/10 08:08:14;;;;;;;10.38;3.00;;;;;;;23.51;49.27;97686.34;7307782;19;130317;-31
2021/12/10 08:10:41;;;;;;;20.67;4.55;;;;;;;23.52;49.21;97682.69;7308854;19;129202;-34
2021/12/10 08:13:07;;;;;;;14.57;3.65;;;;;;;23.53;49.11;97679.09;7303762;19;129411;-35
2021/12/10 08:15:33;;;;;;;28.00;5.43;;;;;;;23.54;49.42;97680.69;7309023;19;129438;-32
2021/12/10 08:17:58;;;;;;;19.05;4.13;;;;;;;23.55;49.27;97666.56;7304562;19;129528;-34
2021/12/10 08:20:26;;;;;;;18.38;4.30;;;;;;;23.60;49.55;97674.66;7308128;19;151602;-37
2021/12/10 08:22:52;;;;;;;32.20;6.57;;;;;;;23.66;48.75;97673.06;7304406;19;131267;-32
2021/12/10 08:25:20;;;;;;;15.93;3.83;;;;;;;23.71;48.39;97666.22;7315235;19;129687;-32
2021/12/10 08:27:47;;;;;;;17.88;4.05;;;;;;;23.83;48.73;97674.28;7315073;19;129124;-34
2021/12/10 08:30:13;;;;;;;;;;;;;;;23.89;48.00;97673.47;7314955;19;128851;-36
2021/12/10 08:32:40;;;;;;;13.95;3.40;;;;;;;24.04;47.93;97666.25;7313974;19;129204;-35
2021/12/10 08:35:10;;;;;;;15.55;3.67;;;;;;;24.10;47.40;97671.50;7311607;19;131565;-38
2021/12/10 08:37:36;;;;;;;15.95;3.80;;;;;;;24.25;47.57;97669.50;7313303;19;129173;-35
2021/12/10 08:40:02;;;;;;;17.35;4.03;;;;;;;24.30;47.12;97667.06;7315755;19;129394;-34
2021/12/10 08:42:28;;;;;;;15.75;3.80;;;;;;;24.36;46.99;97670.69;7315554;19;128830;-34
2021/12/10 08:44:53;;;;;;;16.42;4.10;;;;;;;24.38;47.13;97664.22;7309888;19;158048;-35
2021/12/10 08:47:19;;;;;;;22.13;4.65;;;;;;;24.52;46.88;97658.94;7312809;19;131018;-34
2021/12/10 08:49:44;;;;;;;19.63;4.27;;;;;;;24.48;46.50;97640.97;7314560;19;129739;-38
2021/12/10 08:52:11;;;;;;;16.43;4.00;;;;;;;24.60;46.88;97645.59;7312882;19;129068;-29
2021/12/10 08:54:38;;;;;;;18.23;3.88;;;;;;;24.68;46.61;97642.75;7311659;19;130326;-37
2021/12/10 08:57:06;;;;;;;18.08;4.00;;;;;;;24.72;47.02;97639.53;7312776;19;129683;-38
2021/12/10 08:59:31;;;;;;;12.18;3.25;;;;;;;24.79;46.11;97650.81;7300531;19;130586;-38
2021/12/10 09:02:00;;;;;;;15.77;3.75;;;;;;;24.77;46.34;97644.97;7310883;19;129272;-37
2021/12/10 09:04:29;;;;;;;15.38;3.50;;;;;;;24.85;46.28;97636.03;7310257;19;129772;-37
2021/12/10 09:07:00;;;;;;;21.35;4.70;;;;;;;24.88;46.16;97644.31;7313253;19;129486;-41
2021/12/10 09:09:27;;;;;;;22.58;4.35;;;;;;;24.92;46.51;97636.84;7314092;19;129483;-40
2021/12/10 09:11:55;;;;;;;25.45;5.25;;;;;;;24.93;45.88;97638.44;7315006;19;129627;-36
2021/12/10 09:14:27;;;;;;;18.63;3.95;;;;;;;24.94;45.93;97637.44;7312338;19;130152;-39
2021/12/10 09:16:55;;;;;;;21.73;4.65;;;;;;;24.91;46.26;97632.56;7313165;19;131035;-40
2021/12/10 09:19:22;;;;;;;20.05;4.15;;;;;;;24.92;45.90;97628.94;7313046;19;129977;-40
2021/12/10 09:21:48;;;;;;;23.25;4.53;;;;;;;24.95;46.49;97628.53;7312735;19;129083;-40
2021/12/10 09:24:14;;;;;;;17.00;4.03;;;;;;;24.96;46.03;97624.88;7310833;19;129649;-40
2021/12/10 09:26:44;;;;;;;23.50;4.25;;;;;;;24.98;46.25;97623.66;7314320;19;129334;-39
2021/12/10 09:29:13;;;;;;;19.95;4.63;;;;;;;24.94;46.66;97621.66;7310643;19;128987;-39
2021/12/10 09:31:42;;;;;;;22.55;4.53;;;;;;;24.83;46.42;97612.59;7311205;19;132719;-40
2021/12/10 09:34:07;;;;;;;11.88;3.13;;;;;;;24.83;46.47;97609.97;7308670;19;130151;-38
2021/12/10 09:36:33;;;;;;;15.98;3.38;;;;;;;24.86;46.77;97621.91;7313147;19;130290;-38
2021/12/10 09:38:58;;;;;;;13.67;3.40;;;;;;;24.74;46.69;97605.16;7314643;19;129018;-38
2021/12/10 09:41:24;;;;;;;12.05;3.05;;;;;;;24.77;46.96;97612.63;7314778;19;129555;-35
2021/12/10 09:43:51;;;;;;;30.37;6.00;;;;;;;24.68;46.66;97605.97;7314143;19;129400;-37
2021/12/10 09:46:17;;;;;;;14.73;3.67;;;;;;;24.63;46.62;97595.25;7314234;19;131107;-38
2021/12/10 09:48:43;;;;;;;21.90;4.43;;;;;;;24.70;47.26;97606.56;7311574;19;146959;-37
2021/12/10 09:51:17;;;;;;;14.23;3.03;;;;;;;24.63;47.41;97613.63;7315260;19;129121;-38
2021/12/10 09:53:46;;;;;;;21.27;4.70;;;;;;;24.59;47.61;97601.94;7309566;19;130038;-37
2021/12/10 09:56:12;;;;;;;18.70;3.85;;;;;;;24.57;47.02;97609.22;7310892;19;129432;-37
2021/12/10 09:58:37;;;;;;;14.33;3.17;;;;;;;24.54;47.64;97610.44;7313508;19;129263;-37
2021/12/10 10:01:13;;;;;;;14.07;3.22;;;;;;;24.51;47.94;97612.69;7312777;19;129109;-38
2021/12/10 10:03:42;;;;;;;17.63;3.83;;;;;;;24.49;47.60;97603.16;7311884;19;129593;-34
2021/12/10 10:06:08;;;;;;;11.85;3.13;;;;;;;24.48;47.87;97598.94;7312451;19;132729;-37
2021/12/10 10:08:35;;;;;;;13.90;3.25;;;;;;;24.45;48.01;97590.66;7312595;19;129367;-37
2021/12/10 10:11:08;;;;;;;10.68;3.08;;;;;;;24.41;47.97;97594.72;7313032;19;129326;-33
2021/12/10 10:13:37;;;;;;;12.38;3.08;;;;;;;24.38;48.19;97585.41;7313054;19;130118;-39
2021/12/10 10:16:03;;;;;;;13.85;3.58;;;;;;;24.38;47.66;97581.97;7312389;19;129243;-38
2021/12/10 10:18:31;;;;;;;17.70;4.07;;;;;;;24.37;48.26;97583.81;7313760;19;131237;-37
2021/12/10 10:21:00;;;;;;;16.65;3.58;;;;;;;24.40;48.08;97583.41;7315161;19;132470;-38
2021/12/10 10:23:27;;;;;;;13.82;3.63;;;;;;;24.31;48.08;97574.13;7312890;19;130393;-37
2021/12/10 10:25:56;;;;;;;25.25;4.85;;;;;;;24.32;47.83;97575.75;7312315;19;132172;-33
2021/12/10 10:28:22;;;;;;;12.63;3.28;;;;;;;24.22;48.23;97564.88;7311966;19;128964;-38
2021/12/10 10:30:59;;;;;;;19.97;3.90;;;;;;;24.32;48.19;97565.25;7312337;19;130595;-38
2021/12/10 10:33:27;;;;;;;18.48;3.85;;;;;;;24.30;48.18;97572.50;7301234;19;131435;-36
2021/12/10 10:35:57;;;;;;;25.27;4.65;;;;;;;24.31;48.07;97568.88;7309403;19;130296;-36
2021/12/10 10:38:24;;;;;;;14.90;3.65;;;;;;;24.26;48.26;97566.03;7307985;19;129243;-38
2021/12/10 10:40:54;;;;;;;18.25;3.97;;;;;;;24.21;48.66;97555.34;7311122;19;129400;-32
2021/12/10 10:43:21;;;;;;;11.55;3.25;;;;;;;24.25;48.84;97564.44;7308175;19;130779;-32
2021/12/10 10:45:47;;;;;;;43.97;8.48;;;;;;;24.27;48.11;97557.16;7305351;19;130727;-44
2021/12/10 10:48:15;;;;;;;13.05;3.03;;;;;;;24.21;48.73;97562.44;7311061;19;129138;-32
2021/12/10 10:50:53;;;;;;;9.73;2.65;;;;;;;24.22;48.11;97554.34;7309944;19;129147;-34
2021/12/10 10:53:22;;;;;;;12.70;2.88;;;;;;;24.24;48.81;97549.72;7311574;19;129191;-37
2021/12/10 10:55:58;;;;;;;42.15;9.05;;;;;;;24.24;48.92;97554.16;7300364;19;129800;-36
2021/12/10 10:58:26;;;;;;;16.48;3.58;;;;;;;24.23;48.13;97544.63;7310763;19;129136;-35
2021/12/10 11:01:02;;;;;;;22.70;4.90;;;;;;;24.22;48.66;97551.72;7307436;19;130354;-35
2021/12/10 11:03:37;;;;;;;13.93;3.55;;;;;;;24.19;48.42;97543.44;7310714;19;130125;-29
2021/12/10 11:06:05;;;;;;;9.38;2.60;;;;;;;24.22;48.78;97543.03;7306236;19;131766;-39
2021/12/10 11:08:44;;;;;;;17.98;3.85;;;;;;;24.18;48.39;97553.13;7302619;19;129488;-38
2021/12/10 11:11:18;;;;;;;18.90;3.88;;;;;;;24.18;48.56;97542.63;7304611;19;129779;-37
2021/12/10 11:13:49;;;;;;;38.05;8.05;;;;;;;24.21;48.65;97551.94;7303879;19;130406;-37
2021/12/10 11:16:19;;;;;;;11.43;2.85;;;;;;;24.21;48.42;97547.47;7304813;19;129218;-33
2021/12/10 11:18:44;;;;;;;19.30;4.63;;;;;;;24.22;48.84;97545.66;7303318;19;130687;-35
2021/12/10 11:21:10;;;;;;;15.77;3.97;;;;;;;24.19;48.79;97544.28;7306417;19;154705;-36
2021/12/10 11:23:38;;;;;;;13.48;3.05;;;;;;;24.18;48.87;97545.25;7302072;19;129967;-39
2021/12/10 11:26:04;;;;;;;16.75;3.95;;;;;;;24.16;48.68;97538.63;7310759;19;130461;-36
2021/12/10 11:28:33;;;;;;;22.70;4.57;;;;;;;24.21;48.63;97550.09;7305161;19;129017;-38